createdAt,value
2018-04-30T00:01:08.807Z,54.56
2018-04-30T00:03:37.911Z,54.85
2018-04-30T00:06:06.617Z,54.22
2018-04-30T00:08:34.971Z,54.86
2018-04-30T00:11:03.296Z,55.12
2018-04-30T00:13:31.684Z,55.36
2018-04-30T00:16:00.027Z,55.62
2018-04-30T00:18:28.380Z,55.38
2018-04-30T00:20:56.702Z,56.19
2018-04-30T00:23:25.060Z,55.91
2018-04-30T00:25:53.505Z,55.78
2018-04-30T00:28:21.921Z,56.05
2018-04-30T00:30:50.283Z,55.94
2018-04-30T00:33:18.607Z,56.25
2018-04-30T00:35:46.972Z,55.61
2018-04-30T00:38:15.336Z,55.66
2018-04-30T00:40:43.682Z,55.18
2018-04-30T00:43:12.032Z,55.37
2018-04-30T00:45:41.116Z,54.55
2018-04-30T00:48:09.436Z,54.89
2018-04-30T00:50:37.957Z,54.96
2018-04-30T00:53:06.256Z,54.82
2018-04-30T00:55:34.600Z,54.82
2018-04-30T00:58:03.002Z,54.72
2018-04-30T01:00:31.379Z,54.48
2018-04-30T01:02:59.693Z,54.95
2018-04-30T01:05:28.051Z,55.10
2018-04-30T01:07:57.156Z,54.53
2018-04-30T01:10:26.295Z,54.20
2018-04-30T01:12:54.812Z,54.25
2018-04-30T01:15:23.149Z,54.58
2018-04-30T01:17:51.498Z,54.22
2018-04-30T01:20:20.590Z,53.94
2018-04-30T01:22:48.919Z,54.18
2018-04-30T01:25:17.255Z,53.95
2018-04-30T01:27:45.578Z,54.27
2018-04-30T01:30:13.865Z,54.65
2018-04-30T01:32:42.195Z,54.74
2018-04-30T01:35:10.845Z,54.60
2018-04-30T01:37:39.195Z,55.08
2018-04-30T01:40:07.489Z,55.05
2018-04-30T01:42:35.841Z,55.35
2018-04-30T01:45:04.162Z,55.32
2018-04-30T01:47:32.461Z,55.32
2018-04-30T01:50:01.572Z,55.13
2018-04-30T01:52:29.889Z,55.82
2018-04-30T01:54:58.184Z,56.25
2018-04-30T01:57:27.080Z,56.56
2018-04-30T01:59:55.424Z,55.82
2018-04-30T02:02:23.720Z,56.10
2018-04-30T02:04:52.089Z,56.13
2018-04-30T02:07:20.451Z,56.23
2018-04-30T02:09:48.767Z,56.25
2018-04-30T02:12:17.097Z,56.15
2018-04-30T02:14:45.422Z,55.44
2018-04-30T02:17:13.720Z,55.88
2018-04-30T02:19:42.408Z,55.94
2018-04-30T02:22:11.479Z,56.82
2018-04-30T02:24:39.798Z,56.76
2018-04-30T02:27:08.172Z,57.26
2018-04-30T02:29:37.280Z,57.12
2018-04-30T02:32:05.602Z,56.93
2018-04-30T02:34:33.945Z,56.79
2018-04-30T02:37:02.253Z,56.78
2018-04-30T02:39:31.319Z,56.54
2018-04-30T02:41:59.991Z,56.70
2018-04-30T02:44:28.320Z,56.88
2018-04-30T02:46:56.643Z,56.52
2018-04-30T02:49:25.748Z,56.62
2018-04-30T02:51:54.821Z,56.34
2018-04-30T02:54:23.916Z,56.88
2018-04-30T02:56:53.067Z,57.06
2018-04-30T02:59:21.398Z,57.06
2018-04-30T03:01:49.709Z,58.18
2018-04-30T03:04:18.339Z,57.65
2018-04-30T03:06:46.649Z,58.10
2018-04-30T03:09:15.747Z,58.17
2018-04-30T03:11:44.099Z,57.74
2018-04-30T03:14:13.216Z,57.22
2018-04-30T03:16:42.311Z,58.56
2018-04-30T03:19:11.418Z,58.24
2018-04-30T03:21:39.709Z,58.57
2018-04-30T03:24:08.034Z,57.79
2018-04-30T03:26:36.667Z,58.33
2018-04-30T03:29:05.003Z,58.49
2018-04-30T03:31:33.318Z,58.71
2018-04-30T03:34:02.439Z,58.60
2018-04-30T03:36:30.819Z,58.74
2018-04-30T03:38:59.143Z,58.60
2018-04-30T03:41:27.497Z,58.15
2018-04-30T03:43:55.859Z,58.65
2018-04-30T03:46:24.255Z,58.50
2018-04-30T03:48:53.671Z,59.17
2018-04-30T03:51:22.003Z,59.98
2018-04-30T03:53:50.299Z,59.96
2018-04-30T03:56:18.631Z,60.64
2018-04-30T03:58:47.704Z,60.00
2018-04-30T04:01:33.591Z,59.59
2018-04-30T04:04:19.469Z,59.72
2018-04-30T04:06:55.071Z,60.05
2018-04-30T04:09:23.407Z,59.85
2018-04-30T04:11:51.742Z,59.70
2018-04-30T04:14:20.074Z,59.38
2018-04-30T04:16:48.377Z,59.76
2018-04-30T04:19:16.709Z,60.00
2018-04-30T04:21:45.057Z,59.79
2018-04-30T04:24:13.386Z,59.35
2018-04-30T04:26:41.731Z,58.94
2018-04-30T04:29:10.579Z,59.20
2018-04-30T04:31:38.894Z,59.52
2018-04-30T04:34:07.228Z,59.89
2018-04-30T04:36:35.588Z,59.43
2018-04-30T04:39:03.918Z,59.73
2018-04-30T04:41:32.291Z,59.36
2018-04-30T04:44:00.651Z,59.81
2018-04-30T04:46:28.972Z,60.02
2018-04-30T04:48:57.293Z,60.64
2018-04-30T04:51:25.946Z,59.94
2018-04-30T04:53:54.259Z,59.80
2018-04-30T04:56:23.354Z,60.32
2018-04-30T04:58:52.455Z,60.96
2018-04-30T05:01:21.540Z,60.56
2018-04-30T05:03:50.615Z,59.50
2018-04-30T05:06:18.938Z,60.28
2018-04-30T05:08:48.002Z,60.14
2018-04-30T05:11:16.310Z,60.43
2018-04-30T05:13:45.884Z,60.39
2018-04-30T05:16:14.243Z,60.74
2018-04-30T05:18:42.618Z,60.76
2018-04-30T05:21:10.979Z,61.60
2018-04-30T05:23:39.326Z,62.51
2018-04-30T05:26:08.435Z,62.17
2018-04-30T05:28:36.795Z,62.30
2018-04-30T05:31:05.920Z,61.74
2018-04-30T05:33:34.224Z,62.37
2018-04-30T05:36:02.611Z,61.86
2018-04-30T05:38:30.919Z,62.25
2018-04-30T05:41:00.019Z,62.20
2018-04-30T05:43:28.383Z,62.95
2018-04-30T05:45:56.718Z,62.57
2018-04-30T05:48:25.035Z,61.48
2018-04-30T05:50:53.396Z,60.19
2018-04-30T05:53:21.740Z,60.30
2018-04-30T05:55:50.075Z,58.71
2018-04-30T05:58:18.982Z,58.87
2018-04-30T06:00:47.310Z,60.06
2018-04-30T06:03:15.633Z,60.82
2018-04-30T06:05:43.967Z,61.88
2018-04-30T06:08:12.300Z,62.26
2018-04-30T06:10:41.395Z,62.58
2018-04-30T06:13:09.739Z,61.81
2018-04-30T06:15:38.044Z,61.79
2018-04-30T06:18:06.350Z,61.58
2018-04-30T06:20:35.049Z,62.16
2018-04-30T06:23:03.359Z,61.72
2018-04-30T06:25:31.680Z,61.82
2018-04-30T06:28:00.059Z,61.65
2018-04-30T06:30:29.152Z,63.19
2018-04-30T06:32:58.212Z,63.35
2018-04-30T06:35:26.580Z,62.53
2018-04-30T06:37:54.919Z,62.43
2018-04-30T06:40:23.246Z,62.06
2018-04-30T06:42:52.079Z,60.80
2018-04-30T06:45:20.401Z,59.99
2018-04-30T06:47:48.728Z,60.56
2018-04-30T06:50:17.843Z,60.30
2018-04-30T06:52:46.159Z,59.47
2018-04-30T06:55:14.498Z,60.93
2018-04-30T06:57:42.864Z,60.75
2018-04-30T07:00:12.060Z,60.55
2018-04-30T07:02:40.348Z,59.51
2018-04-30T07:05:09.019Z,60.52
2018-04-30T07:07:38.152Z,61.85
2018-04-30T07:10:06.455Z,61.20
2018-04-30T07:12:34.785Z,62.41
2018-04-30T07:15:03.115Z,61.66
2018-04-30T07:17:31.442Z,62.08
2018-04-30T07:19:59.862Z,63.82
2018-04-30T07:22:28.171Z,62.92
2018-04-30T07:24:56.477Z,63.00
2018-04-30T07:27:25.610Z,62.73
2018-04-30T07:29:53.938Z,62.42
2018-04-30T07:32:23.025Z,62.50
2018-04-30T07:34:52.147Z,63.57
2018-04-30T07:37:20.615Z,63.89
2018-04-30T07:39:49.684Z,64.11
2018-04-30T07:42:18.049Z,64.32
2018-04-30T07:44:46.357Z,64.07
2018-04-30T07:47:14.678Z,63.28
2018-04-30T07:49:43.513Z,62.76
2018-04-30T07:52:11.903Z,62.62
2018-04-30T07:54:41.051Z,62.96
2018-04-30T07:57:09.412Z,61.89
2018-04-30T07:59:37.730Z,61.86
2018-04-30T08:02:06.077Z,61.59
2018-04-30T08:04:34.464Z,62.36
2018-04-30T08:07:02.771Z,62.55
2018-04-30T08:09:31.863Z,61.51
2018-04-30T08:12:00.557Z,60.53
2018-04-30T08:14:28.870Z,59.97
2018-04-30T08:16:57.960Z,61.68
2018-04-30T08:19:27.078Z,62.06
2018-04-30T08:21:55.424Z,61.88
2018-04-30T08:24:23.732Z,61.93
2018-04-30T08:26:52.115Z,61.72
2018-04-30T08:29:21.191Z,61.38
2018-04-30T08:31:50.275Z,60.49
2018-04-30T08:34:19.668Z,61.17
2018-04-30T08:36:47.943Z,60.04
2018-04-30T08:39:16.734Z,58.11
2018-04-30T08:41:45.076Z,57.95
2018-04-30T08:44:13.427Z,57.84
2018-04-30T08:46:41.740Z,57.41
2018-04-30T08:49:10.100Z,57.57
2018-04-30T08:51:38.405Z,58.30
2018-04-30T08:54:06.731Z,57.26
2018-04-30T08:56:35.398Z,57.36
2018-04-30T08:59:04.563Z,57.82
2018-04-30T09:01:32.939Z,56.87
2018-04-30T09:04:02.027Z,55.06
2018-04-30T09:06:30.452Z,55.32
2018-04-30T09:08:58.807Z,54.91
2018-04-30T09:11:27.165Z,53.12
2018-04-30T09:13:55.516Z,51.52
2018-04-30T09:16:23.853Z,49.87
2018-04-30T09:18:52.748Z,53.52
2018-04-30T09:21:21.104Z,53.92
2018-04-30T09:23:49.509Z,56.67
2018-04-30T09:26:17.851Z,57.63
2018-04-30T09:28:46.155Z,57.08
2018-04-30T09:31:14.488Z,56.50
2018-04-30T09:33:42.835Z,56.94
2018-04-30T09:36:11.158Z,55.39
2018-04-30T09:38:39.512Z,54.89
2018-04-30T09:41:08.295Z,54.66
2018-04-30T09:43:36.600Z,54.50
2018-04-30T09:46:05.003Z,54.09
2018-04-30T09:48:33.379Z,54.17
2018-04-30T09:51:01.736Z,54.00
2018-04-30T09:53:30.071Z,56.30
2018-04-30T09:55:59.210Z,55.81
2018-04-30T09:58:27.515Z,54.30
2018-04-30T10:00:55.851Z,53.10
2018-04-30T10:03:24.500Z,53.17
2018-04-30T10:05:52.806Z,53.17
2018-04-30T10:08:21.875Z,53.90
2018-04-30T10:10:50.205Z,55.20
2018-04-30T10:13:18.508Z,56.47
2018-04-30T10:15:46.856Z,57.39
2018-04-30T10:18:15.220Z,57.31
2018-04-30T10:20:43.565Z,57.37
2018-04-30T10:23:11.897Z,59.43
2018-04-30T10:25:40.751Z,60.60
2018-04-30T10:28:09.068Z,60.75
2018-04-30T10:30:37.408Z,61.08
2018-04-30T10:33:06.542Z,61.07
2018-04-30T10:35:34.866Z,60.92
2018-04-30T10:38:03.263Z,60.96
2018-04-30T10:40:31.576Z,61.07
2018-04-30T10:42:59.902Z,61.11
2018-04-30T10:45:28.203Z,60.49
2018-04-30T10:47:56.848Z,60.96
2018-04-30T10:50:25.151Z,61.13
2018-04-30T10:52:53.505Z,62.26
2018-04-30T10:55:21.912Z,62.95
2018-04-30T10:57:50.283Z,63.01
2018-04-30T11:00:18.634Z,63.34
2018-04-30T11:02:46.987Z,63.91
2018-04-30T11:05:15.313Z,63.53
2018-04-30T11:07:43.647Z,63.39
2018-04-30T11:10:12.403Z,63.55
2018-04-30T11:12:41.502Z,64.17
2018-04-30T11:15:10.598Z,63.42
2018-04-30T11:17:39.735Z,62.81
2018-04-30T11:20:08.072Z,63.19
2018-04-30T11:22:37.167Z,62.28
2018-04-30T11:25:06.293Z,62.29
2018-04-30T11:27:34.695Z,61.79
2018-04-30T11:30:03.739Z,61.91
2018-04-30T11:32:33.266Z,61.37
2018-04-30T11:35:01.596Z,61.07
2018-04-30T11:37:29.978Z,60.78
2018-04-30T11:39:59.186Z,61.89
2018-04-30T11:42:27.411Z,61.46
2018-04-30T11:44:55.723Z,61.55
2018-04-30T11:47:24.064Z,61.15
2018-04-30T11:49:52.420Z,62.56
2018-04-30T11:52:20.743Z,62.01
2018-04-30T11:54:49.242Z,61.91
2018-04-30T11:57:17.587Z,62.94
2018-04-30T11:59:46.133Z,62.49
2018-04-30T12:02:14.524Z,61.74
2018-04-30T12:04:42.848Z,62.77
2018-04-30T12:07:11.205Z,63.35
2018-04-30T12:09:39.563Z,64.24
2018-04-30T12:12:07.899Z,64.08
2018-04-30T12:14:36.219Z,64.73
2018-04-30T12:17:05.101Z,65.11
2018-04-30T12:19:33.442Z,67.43
2018-04-30T12:22:01.789Z,66.33
2018-04-30T12:24:30.882Z,65.07
2018-04-30T12:26:59.222Z,64.80
2018-04-30T12:29:27.746Z,66.47
2018-04-30T12:31:56.089Z,66.88
2018-04-30T12:34:24.431Z,66.60
2018-04-30T12:36:52.751Z,67.19
2018-04-30T12:39:21.426Z,67.30
2018-04-30T12:41:49.772Z,68.47
2018-04-30T12:44:18.101Z,69.62
2018-04-30T12:46:46.471Z,67.71
2018-04-30T12:49:14.790Z,68.22
2018-04-30T12:51:43.105Z,69.46
2018-04-30T12:54:12.219Z,70.47
2018-04-30T12:56:40.536Z,70.57
2018-04-30T12:59:08.868Z,68.84
2018-04-30T13:01:37.759Z,71.27
2018-04-30T13:04:06.068Z,69.37
2018-04-30T13:06:34.430Z,66.26
2018-04-30T13:09:03.020Z,65.21
2018-04-30T13:11:31.307Z,65.18
2018-04-30T13:13:59.647Z,61.92
2018-04-30T13:16:28.006Z,62.97
2018-04-30T13:18:56.324Z,65.63
2018-04-30T13:21:24.650Z,63.52
2018-04-30T13:23:53.101Z,62.22
2018-04-30T13:26:21.460Z,62.32
2018-04-30T13:28:50.568Z,61.68
2018-04-30T13:31:18.918Z,60.62
2018-04-30T13:33:47.248Z,60.62
2018-04-30T13:36:15.578Z,58.62
2018-04-30T13:38:44.691Z,56.21
2018-04-30T13:41:13.791Z,58.99
2018-04-30T13:43:43.088Z,57.04
2018-04-30T13:46:11.863Z,57.28
2018-04-30T13:48:40.172Z,57.12
2018-04-30T13:51:08.483Z,55.08
2018-04-30T13:53:37.591Z,54.70
2018-04-30T13:56:05.990Z,54.42
2018-04-30T13:58:34.332Z,54.17
2018-04-30T14:01:02.660Z,52.15
2018-04-30T14:03:31.740Z,51.18
2018-04-30T14:06:00.050Z,49.28
2018-04-30T14:08:29.026Z,51.25
2018-04-30T14:10:57.322Z,50.35
2018-04-30T14:13:25.639Z,51.29
2018-04-30T14:15:54.035Z,50.53
2018-04-30T14:18:22.316Z,50.71
2018-04-30T14:20:50.636Z,50.54
2018-04-30T14:23:18.976Z,49.44
2018-04-30T14:25:47.301Z,49.14
2018-04-30T14:28:15.861Z,49.64
2018-04-30T14:30:45.569Z,47.74
2018-04-30T14:33:13.872Z,47.39
2018-04-30T14:35:42.205Z,46.10
2018-04-30T14:38:10.539Z,46.51
2018-04-30T14:40:38.948Z,44.66
2018-04-30T14:43:07.240Z,44.78
2018-04-30T14:45:35.911Z,44.37
2018-04-30T14:48:04.241Z,44.93
2018-04-30T14:50:32.559Z,46.26
2018-04-30T14:53:01.278Z,44.82
2018-04-30T14:55:29.595Z,43.79
2018-04-30T14:57:57.906Z,45.26
2018-04-30T15:00:26.269Z,44.37
2018-04-30T15:02:54.590Z,46.37
2018-04-30T15:05:22.915Z,45.38
2018-04-30T15:07:51.285Z,44.82
2018-04-30T15:10:19.596Z,45.20
2018-04-30T15:12:47.958Z,45.69
2018-04-30T15:15:16.792Z,46.04
2018-04-30T15:17:45.120Z,45.07
2018-04-30T15:20:14.215Z,44.87
2018-04-30T15:22:42.566Z,44.03
2018-04-30T15:25:10.884Z,44.39
2018-04-30T15:27:39.192Z,43.53
2018-04-30T15:30:07.602Z,43.89
2018-04-30T15:32:36.657Z,41.97
2018-04-30T15:35:04.979Z,42.03
2018-04-30T15:37:33.400Z,42.04
2018-04-30T15:40:01.709Z,42.13
2018-04-30T15:42:30.824Z,42.03
2018-04-30T15:44:59.927Z,42.17
2018-04-30T15:47:29.046Z,41.89
2018-04-30T15:49:57.377Z,40.63
2018-04-30T15:52:25.732Z,39.83
2018-04-30T15:54:54.032Z,40.51
2018-04-30T15:57:22.349Z,40.40
2018-04-30T15:59:50.781Z,41.61
2018-04-30T16:02:19.086Z,41.26
2018-04-30T16:04:48.163Z,41.31
2018-04-30T16:07:16.523Z,40.67
2018-04-30T16:09:44.916Z,40.75
2018-04-30T16:12:13.266Z,40.70
2018-04-30T16:14:41.632Z,40.86
2018-04-30T16:17:09.956Z,39.99
2018-04-30T16:19:38.252Z,40.19
2018-04-30T16:22:07.755Z,40.26
2018-04-30T16:24:36.844Z,40.30
2018-04-30T16:27:05.942Z,39.76
2018-04-30T16:29:35.038Z,39.97
2018-04-30T16:32:04.168Z,40.53
2018-04-30T16:34:32.493Z,40.34
2018-04-30T16:37:00.846Z,39.68
2018-04-30T16:39:29.177Z,39.49
2018-04-30T16:41:58.240Z,39.87
2018-04-30T16:44:26.761Z,40.21
2018-04-30T16:46:55.847Z,40.55
2018-04-30T16:49:24.934Z,40.63
2018-04-30T16:51:53.423Z,41.03
2018-04-30T16:54:22.544Z,40.98
2018-04-30T16:56:50.858Z,41.25
2018-04-30T16:59:19.226Z,41.00
2018-04-30T17:01:47.546Z,40.97
2018-04-30T17:04:15.932Z,41.13
2018-04-30T17:06:45.029Z,40.86
2018-04-30T17:09:13.396Z,41.66
2018-04-30T17:11:42.519Z,41.89
2018-04-30T17:14:11.650Z,41.74
2018-04-30T17:16:40.020Z,41.87
2018-04-30T17:19:08.351Z,42.02
2018-04-30T17:21:36.729Z,42.56
2018-04-30T17:24:05.068Z,42.77
2018-04-30T17:26:33.383Z,42.60
2018-04-30T17:29:01.909Z,42.81
2018-04-30T17:31:30.212Z,43.21
2018-04-30T17:33:58.547Z,43.36
2018-04-30T17:36:27.697Z,43.63
2018-04-30T17:38:56.025Z,44.00
2018-04-30T17:41:25.121Z,43.55
2018-04-30T17:43:54.233Z,43.84
2018-04-30T17:46:22.568Z,44.13
2018-04-30T17:48:50.890Z,43.69
2018-04-30T17:51:19.953Z,44.14
2018-04-30T17:53:48.295Z,43.72
2018-04-30T17:56:16.615Z,43.98
2018-04-30T17:58:45.788Z,44.01
2018-04-30T18:01:14.081Z,44.65
2018-04-30T18:03:42.393Z,43.73
2018-04-30T18:06:10.810Z,43.51
2018-04-30T18:08:39.132Z,43.73
2018-04-30T18:11:07.460Z,43.29
2018-04-30T18:13:36.132Z,43.42
2018-04-30T18:16:04.469Z,43.56
2018-04-30T18:18:33.553Z,43.17
2018-04-30T18:21:01.903Z,43.67
2018-04-30T18:23:30.256Z,44.31
2018-04-30T18:25:58.583Z,44.22
2018-04-30T18:28:26.918Z,44.25
2018-04-30T18:30:55.306Z,44.03
2018-04-30T18:33:23.721Z,44.25
2018-04-30T18:35:52.836Z,44.01
2018-04-30T18:38:21.951Z,44.01
2018-04-30T18:40:51.084Z,44.47
2018-04-30T18:43:20.202Z,44.17
2018-04-30T18:45:48.541Z,44.61
2018-04-30T18:48:16.873Z,44.94
2018-04-30T18:50:45.212Z,44.64
2018-04-30T18:53:13.514Z,45.28
2018-04-30T18:55:41.856Z,45.40
2018-04-30T18:58:10.792Z,47.39
2018-04-30T19:00:39.139Z,47.58
2018-04-30T19:03:07.466Z,47.66
2018-04-30T19:05:36.589Z,47.41
2018-04-30T19:08:05.022Z,47.19
2018-04-30T19:10:33.265Z,47.84
2018-04-30T19:13:02.571Z,47.72
2018-04-30T19:15:30.892Z,47.52
2018-04-30T19:17:59.193Z,47.86
2018-04-30T19:20:27.891Z,47.99
2018-04-30T19:22:56.203Z,48.27
2018-04-30T19:25:24.551Z,48.06
2018-04-30T19:27:52.936Z,47.91
2018-04-30T19:30:21.253Z,47.55
2018-04-30T19:32:49.589Z,48.49
2018-04-30T19:35:17.938Z,48.50
2018-04-30T19:37:47.055Z,48.42
2018-04-30T19:40:15.401Z,48.74
2018-04-30T19:42:44.227Z,48.57
2018-04-30T19:45:12.568Z,48.68
2018-04-30T19:47:40.866Z,48.97
2018-04-30T19:50:09.977Z,48.88
2018-04-30T19:52:38.341Z,48.77
2018-04-30T19:55:07.569Z,49.09
2018-04-30T19:57:35.900Z,49.35
2018-04-30T20:00:04.228Z,50.04
2018-04-30T20:02:32.574Z,50.14
2018-04-30T20:05:01.227Z,50.41
2018-04-30T20:07:29.591Z,50.17
2018-04-30T20:09:57.889Z,50.55
2018-04-30T20:12:26.406Z,50.72
2018-04-30T20:14:54.746Z,51.62
2018-04-30T20:17:23.075Z,51.40
2018-04-30T20:19:51.417Z,50.87
2018-04-30T20:22:19.711Z,50.98
2018-04-30T20:24:48.789Z,51.90
2018-04-30T20:27:17.603Z,51.81
2018-04-30T20:29:46.793Z,51.31
2018-04-30T20:32:15.864Z,51.34
2018-04-30T20:34:44.226Z,51.60
2018-04-30T20:37:12.550Z,51.54
2018-04-30T20:39:40.883Z,51.85
2018-04-30T20:42:09.226Z,51.83
2018-04-30T20:44:37.592Z,51.47
2018-04-30T20:47:06.157Z,51.41
2018-04-30T20:49:35.608Z,51.42
2018-04-30T20:52:03.935Z,50.95
2018-04-30T20:54:32.273Z,51.61
2018-04-30T20:57:00.640Z,50.66
2018-04-30T20:59:28.968Z,51.20
2018-04-30T21:01:57.283Z,51.37
2018-04-30T21:04:25.648Z,51.49
2018-04-30T21:06:54.739Z,51.65
2018-04-30T21:09:23.068Z,52.03
2018-04-30T21:11:51.616Z,52.28
2018-04-30T21:14:19.963Z,51.54
2018-04-30T21:16:48.316Z,51.94
2018-04-30T21:19:16.683Z,51.48
2018-04-30T21:21:45.752Z,51.17
2018-04-30T21:24:14.067Z,51.34
2018-04-30T21:26:42.415Z,51.18
2018-04-30T21:29:10.744Z,51.04
2018-04-30T21:31:39.106Z,51.40
2018-04-30T21:34:07.844Z,51.35
2018-04-30T21:36:36.190Z,51.41
2018-04-30T21:39:04.543Z,51.88
2018-04-30T21:41:32.928Z,52.66
2018-04-30T21:44:01.316Z,52.84
2018-04-30T21:46:29.676Z,53.04
2018-04-30T21:48:59.036Z,53.22
2018-04-30T21:51:27.386Z,53.75
2018-04-30T21:53:55.732Z,54.52
2018-04-30T21:56:24.298Z,54.25
2018-04-30T21:58:52.656Z,54.64
2018-04-30T22:01:21.759Z,54.60
2018-04-30T22:03:50.106Z,54.21
2018-04-30T22:06:19.206Z,54.89
2018-04-30T22:08:47.541Z,54.75
2018-04-30T22:11:15.883Z,55.14
2018-04-30T22:13:44.976Z,54.79
2018-04-30T22:16:13.320Z,54.82
2018-04-30T22:18:42.108Z,54.54
2018-04-30T22:21:10.442Z,54.43
2018-04-30T22:23:38.783Z,54.47
2018-04-30T22:26:07.923Z,54.26
2018-04-30T22:28:36.270Z,54.27
2018-04-30T22:31:04.627Z,54.73
2018-04-30T22:33:32.964Z,54.34
2018-04-30T22:36:01.262Z,53.95
2018-04-30T22:38:29.562Z,53.92
2018-04-30T22:40:57.967Z,53.65
2018-04-30T22:43:27.066Z,54.08
2018-04-30T22:45:55.371Z,53.68
2018-04-30T22:48:23.714Z,54.58
2018-04-30T22:50:53.300Z,54.51
2018-04-30T22:53:21.637Z,54.53
2018-04-30T22:55:50.016Z,54.31
2018-04-30T22:58:18.321Z,54.21
2018-04-30T23:00:46.647Z,53.98
2018-04-30T23:03:15.339Z,53.93
2018-04-30T23:05:43.673Z,54.57
2018-04-30T23:08:12.065Z,54.00
2018-04-30T23:10:40.387Z,53.70
2018-04-30T23:13:08.716Z,54.34
2018-04-30T23:15:37.091Z,54.23
2018-04-30T23:18:05.435Z,54.13
2018-04-30T23:20:33.767Z,54.15
2018-04-30T23:23:02.850Z,53.90
2018-04-30T23:25:31.559Z,54.13
2018-04-30T23:28:00.647Z,54.35
2018-04-30T23:30:28.979Z,54.39
2018-04-30T23:32:57.316Z,54.96
2018-04-30T23:35:26.422Z,54.29
2018-04-30T23:37:54.744Z,54.47
2018-04-30T23:40:23.061Z,55.00
2018-04-30T23:42:52.128Z,54.71
2018-04-30T23:45:20.438Z,54.41
2018-04-30T23:47:48.879Z,53.94
2018-04-30T23:50:17.176Z,54.05
2018-04-30T23:52:45.519Z,54.03
2018-04-30T23:55:13.844Z,53.35
2018-04-30T23:57:42.924Z,53.48
